Kendrick, ID (83537)

9:03 PM PST on February 06, 2016 (GMT -0800)
Linden-Cedar Ridge | | Change Station
CLOSE
Current Station
Personal Weather Station
Location: Kendrick, ID
Elevation: 2707 ft
Nearby Weather Stations

Elev 2707 ft 46.69 °N, 116.50 °W | Updated 18 seconds ago

Partly Cloudy
Partly Cloudy
30.4 °F
Feels Like 30 °F
N
2.0
Wind Variable Wind from NE
Gusts 2.0 mph

Today
High -- | Low -- °F
--% Chance of Precip.
Yesterday
High -- | Low -- °F
Precip. -- in
Pressure 30.50 in
Visibility 10.0 miles
Clouds Mostly Cloudy 11000 ft
Windchill 30 °F
Dew Point 27 °F
Humidity 87%
Rainfall 0.02 in
Snow Depth Not available.
7:04 AM 4:57 PM
Waning Crescent, 3% visible
METAR KPUW 070453Z AUTO 08003KT 10SM BKN110 01/M01 A3043 RMK AO2 SLP327 T00061011
Pressure 30.50 in
Visibility 10.0 miles
Clouds Mostly Cloudy 11000 ft
Windchill 30 °F
Dew Point 27 °F
Humidity 87%
Rainfall 0.02 in
Snow Depth Not available.
7:04 AM 4:57 PM
Waning Crescent, 3% visible
METAR KPUW 070453Z AUTO 08003KT 10SM BKN110 01/M01 A3043 RMK AO2 SLP327 T00061011

10-Day Weather Forecast

Almanac

Astronomy

Feb. 06, 2016 Rise Set
Actual Time
Civil Twilight
Nautical Twilight
Astronomical Twilight
Moon
Length of Visible Light
Length of Day
Tomorrow will be .
, % of the Moon is Illuminated

Today's Extremes

State Highs State Lows

Community

WunderPhotos

Upload Photos

1,891,157 photos uploaded!

WunderBlog® & News

Nearby

Air Quality

  Air Quality AQ Index Pollutant
Not available.

Snow Depth

Station Depth Elevation

Earthquake Activity

City Distance Mag. Time & Date
Minimum magnitude displayed is 2.5.

Coastal Water Temperatures

Place Temperature

Stations

Nearby Weather Stations

Station Location Temp. Windchill Dew Point Humidity Wind Precip. Elev Updated Type
                   

Watches & Warnings

There are currently no watches in effect.